ADDS METAR Data INFO
IDs: Format: Raw Decoded Include TAF

Data at: 0754 UTC 17 Oct 2017

KGUL 170735Z AUTO 04011G22KT 10SM 24/16 A3012 RMK A01
KGUL 170715Z AUTO 05012G26KT 10SM 24/15 A3012 RMK A01
KGUL 170655Z AUTO 06020KT 10SM 24/15 A3011 RMK A01
KGUL 170635Z AUTO 04011G23KT 10SM 24/15 A3012 RMK A01
KGUL 170615Z AUTO 05018G24KT 10SM 24/15 A3012 RMK A01
KGUL 170555Z AUTO 05019KT 10SM 24/15 A3013 RMK A01
KGUL 170535Z AUTO 04015G24KT 10SM 24/15 A3013 RMK A01
KGUL 170515Z AUTO 04014G25KT 10SM 24/15 A3014 RMK A01
KGUL 170455Z AUTO 02010G21KT 360V060 10SM 24/15 A3014 RMK A01
KGUL 170435Z AUTO 05015G24KT 10SM 24/16 A3014 RMK A01
KGUL 170415Z AUTO 03011G21KT 10SM 24/15 A3015 RMK A01
KGUL 170355Z AUTO 03012G24KT 10SM 25/16 A3015 RMK A01
KGUL 170335Z AUTO 03011G26KT 10SM 25/15 A3015 RMK A01
KGUL 170315Z AUTO 05013G23KT 10SM 25/16 A3015 RMK A01
KGUL 170255Z AUTO 03012G25KT 10SM 25/16 A3015 RMK A01
KGUL 170235Z AUTO 03010G22KT 10SM 25/16 A3014 RMK A01
KGUL 170215Z AUTO 03012G23KT 10SM 25/17 A3014 RMK A01
KGUL 170155Z AUTO 04011G24KT 10SM 25/17 A3014 RMK A01
KGUL 170135Z AUTO 03013G22KT 10SM 25/17 A3013 RMK A01
KGUL 170115Z AUTO 03013G21KT 10SM 25/16 A3012 RMK A01
KGUL 170055Z AUTO 05015G23KT 10SM 25/17 A3011 RMK A01
KGUL 170035Z AUTO 03011G22KT 10SM 25/18 A3011 RMK A01
KGUL 170015Z AUTO 04013G22KT 10SM 24/18 A3010 RMK A01
KGUL 162355Z AUTO 04010G22KT 10SM 24/18 A3009 RMK A01
KGUL 162335Z AUTO 03011G23KT 10SM 24/19 A3008 RMK A01
KGUL 162315Z AUTO 03013G23KT 10SM 24/19 A3007 RMK A01
KGUL 162255Z AUTO 02012G20KT 10SM 24/20 A3007 RMK A01
KGUL 162235Z AUTO 03013G22KT 360V060 10SM 24/20 A3007 RMK A01
KGUL 162215Z AUTO 03011G20KT 10SM 24/20 A3006 RMK A01
KGUL 162155Z AUTO 02011G17KT 9SM 24/20 A3006 RMK A01
KGUL 162135Z AUTO 03010G20KT 10SM 24/20 A3006 RMK A01
KGUL 162115Z AUTO 03010G22KT 10SM 24/20 A3007 RMK A01
KGUL 162055Z AUTO 03012G19KT 10SM 24/20 A3007 RMK A01
KGUL 162035Z AUTO 04012G22KT 9SM 24/21 A3007 RMK A01
KGUL 162015Z AUTO 03011G19KT 9SM 24/20 A3007 RMK A01
KGUL 161955Z AUTO 03010G16KT 9SM 24/21 A3007 RMK A01
KGUL 161935Z AUTO 03011G21KT 010V070 9SM 24/21 A3007 RMK A01
KGUL 161915Z AUTO 03010KT 9SM 24/21 A3008 RMK A01
KGUL 161855Z AUTO 02011G21KT 9SM 24/21 A3009 RMK A01
KGUL 161835Z AUTO 03011G19KT 9SM 24/21 A3009 RMK A01
KGUL 161815Z AUTO 03011G20KT 9SM 24/21 A3010 RMK A01
KGUL 161755Z AUTO 02012G21KT 9SM 24/21 A3012 RMK A01
KGUL 161735Z AUTO 03013G20KT 9SM 25/21 A3011 RMK A01
KGUL 161715Z AUTO 02013KT 9SM 25/21 A3012 RMK A01
KGUL 161655Z AUTO 03011G19KT 10SM 25/21 A3013 RMK A01
KGUL 161635Z AUTO 02013KT 9SM 25/22 A3013 RMK A01
KGUL 161615Z AUTO 02012G19KT 9SM 25/22 A3013 RMK A01
KGUL 161555Z AUTO 03012G19KT 8SM 25/22 A3013 RMK A01
KGUL 161535Z AUTO 03008G17KT 9SM 26/22 A3013 RMK A01
KGUL 161515Z AUTO 04012G21KT 9SM 26/22 A3014 RMK A01
KGUL 161455Z AUTO 05012G22KT 10SM 26/23 A3013 RMK A01
KGUL 161435Z AUTO 05014G23KT 9SM 26/23 A3012 RMK A01
KGUL 161415Z AUTO 05015G21KT 9SM 26/23 A3012 RMK A01
KGUL 161355Z AUTO 05017G24KT 9SM 26/22 A3011 RMK A01
KGUL 161335Z AUTO 03011G20KT 8SM 26/23 A3011 RMK A01
KGUL 161315Z AUTO 02012G21KT 7SM 25/23 A3011 RMK A01
KGUL 161220Z AUTO 03014G22KT 9SM 26/23 A3007 RMK A01
KGUL 161215Z AUTO 02014G22KT 9SM 26/23 A3007 RMK A01
KGUL 161155Z AUTO 03016G29KT 9SM 26/23 A3006 RMK A01
KGUL 161135Z AUTO 03016G29KT 9SM 26/23 A3004 RMK A01
KGUL 161115Z AUTO 02018G30KT 10SM 26/23 A3003 RMK A01
KGUL 161055Z AUTO 03022G31KT 7SM 26/23 A3002 RMK A01
KGUL 161035Z AUTO 03021G31KT 9SM 27/24 A3002 RMK A01
KGUL 161015Z AUTO 02021G30KT 9SM 27/24 A3001 RMK A01
KGUL 160955Z AUTO 02016G28KT 10SM 26/24 A3000 RMK A01 P0022
KGUL 160935Z AUTO 02025G31KT 8SM 26/24 A2999 RMK A01
KGUL 160915Z AUTO 02023G33KT 3SM BR 26/24 A2998 RMK A01
KGUL 160855Z AUTO 02020G28KT 4SM HZ 26/23 A2999 RMK A01
KGUL 160835Z AUTO 36014G25KT 330V070 8SM FEW004 SCT011 BKN016 27/24 A3000 RMK A01
KGUL 160815Z AUTO 03012G20KT 8SM BKN016 BKN036 OVC090 28/25 A3001 RMK A01
KGUL 160755Z AUTO 02008KT 10SM FEW019 SCT034 BKN055 28/24 A3002 RMK A01
KGUL 160735Z AUTO 03009G18KT 10SM SCT019 BKN029 OVC075 28/24 A3002 RMK A01
KGUL 160715Z AUTO 03008G15KT 10SM SCT017 BKN029 BKN046 28/24 A3003 RMK A01
KGUL 160655Z AUTO 04011G17KT 10SM SCT018 BKN033 OVC080 28/25 A3003 RMK A01
KGUL 160635Z AUTO 04008G15KT 10SM FEW015 SCT035 BKN050 28/25 A3004 RMK A01
KGUL 160615Z AUTO 03008G14KT 10SM FEW016 SCT024 BKN055 28/25 A3004 RMK A01
KGUL 160555Z AUTO 02010KT 10SM FEW015 SCT020 BKN024 28/25 A3004 RMK A01
KGUL 160535Z AUTO 04007G13KT 10SM SCT016 SCT024 BKN033 28/25 A3004 RMK A01
KGUL 160515Z AUTO 05013KT 10SM SCT016 SCT027 BKN035 28/24 A3005 RMK A01
KGUL 160455Z AUTO 03008G17KT 10SM BKN019 BKN029 OVC055 28/24 A3006 RMK A01
KGUL 160435Z AUTO 05013KT 10SM SCT017 SCT023 BKN042 28/25 A3006 RMK A01
KGUL 160415Z AUTO 05014KT 10SM FEW017 FEW050 28/25 A3006 RMK A01
KGUL 160355Z AUTO 05010G16KT 10SM FEW039 SCT050 28/24 A3007 RMK A01
KGUL 160335Z AUTO 06013KT 10SM FEW040 28/24 A3007 RMK A01
KGUL 160315Z AUTO 05011KT 10SM CLR 28/24 A3007 RMK A01
KGUL 160255Z AUTO 05012KT 10SM CLR 28/24 A3007 RMK A01
KGUL 160235Z AUTO 02008G15KT 10SM CLR 28/25 A3007 RMK A01
KGUL 160215Z AUTO 03008G14KT 10SM FEW005 FEW090 SCT120 28/24 A3007 RMK A01
KGUL 160155Z AUTO 03008G16KT 10SM FEW005 FEW090 SCT110 28/24 A3006 RMK A01
KGUL 160135Z AUTO 03009G16KT 10SM SCT110 27/25 A3005 RMK A01
KGUL 160115Z AUTO 03006G13KT 10SM FEW018 FEW026 SCT120 28/24 A3005 RMK A01
KGUL 160055Z AUTO 05013G18KT 10SM SCT019 SCT025 BKN065 28/24 A3004 RMK A01
KGUL 160035Z AUTO 05016KT 10SM SCT018 SCT070 BKN095 28/24 A3003 RMK A01
KGUL 160015Z AUTO 06015KT 10SM SCT015 28/25 A3003 RMK A01
KGUL 152355Z AUTO 04009G17KT 10SM FEW016 FEW023 FEW031 28/25 A3001 RMK A01
KGUL 152335Z AUTO 04007G15KT 10SM SCT017 SCT023 28/25 A3001 RMK A01
KGUL 152315Z AUTO 05014KT 10SM FEW019 FEW025 28/24 A3001 RMK A01
KGUL 152255Z AUTO 06016KT 10SM FEW019 FEW025 28/24 A3001 RMK A01
KGUL 152235Z AUTO 05011G18KT 10SM 28/24 A3000 RMK A01
KGUL 152215Z AUTO 05010KT 7SM 27/24 A2999 RMK A01
KGUL 152155Z AUTO 04011G17KT 2 1/2SM HZ 27/24 A3000 RMK A01
KGUL 152135Z AUTO 03008KT 10SM BKN018 BKN025 BKN040 28/24 A2999 RMK A01
KGUL 152115Z AUTO 03009G14KT 10SM SCT018 SCT025 BKN085 28/24 A3000 RMK A01
KGUL 152055Z AUTO 05008G17KT 10SM BKN017 BKN035 BKN055 28/24 A2999 RMK A01
KGUL 152035Z AUTO 05015KT 10SM FEW006 SCT017 BKN055 28/24 A2999 RMK A01
KGUL 152015Z AUTO 05012KT 10SM 28/24 A2999 RMK A01
KGUL 151955Z AUTO 05012KT 10SM SCT017 SCT035 SCT085 29/24 A3000 RMK A01